createdAt,value
2017-03-28T00:01:06.904Z,91.75
2017-03-28T00:02:15.791Z,91.08
2017-03-28T00:03:25.309Z,91.08
2017-03-28T00:04:34.580Z,91.47
2017-03-28T00:05:43.781Z,91.94
2017-03-28T00:06:52.983Z,93.37
2017-03-28T00:08:02.197Z,93.84
2017-03-28T00:09:11.086Z,94.22
2017-03-28T00:10:19.678Z,94.42
2017-03-28T00:11:28.241Z,94.7
2017-03-28T00:12:36.815Z,94.32
2017-03-28T00:13:45.699Z,93.27
2017-03-28T00:14:54.925Z,91.75
2017-03-28T00:16:03.753Z,89.94
2017-03-28T00:17:12.669Z,88.8
2017-03-28T00:18:21.562Z,87.66
2017-03-28T00:19:30.763Z,87.38
2017-03-28T00:20:39.970Z,87.66
2017-03-28T00:21:48.855Z,86.9
2017-03-28T00:22:57.739Z,86.14
2017-03-28T00:24:06.312Z,86.33
2017-03-28T00:25:14.887Z,86.24
2017-03-28T00:26:23.476Z,85.57
2017-03-28T00:27:32.682Z,85.28
2017-03-28T00:28:41.255Z,85.95
2017-03-28T00:29:49.824Z,85.66
2017-03-28T00:30:59.030Z,85.95
2017-03-28T00:32:07.917Z,85.47
2017-03-28T00:33:16.801Z,85.28
2017-03-28T00:34:25.696Z,85.66
2017-03-28T00:35:34.898Z,86.05
2017-03-28T00:36:44.102Z,85.86
2017-03-28T00:37:53.307Z,86.71
2017-03-28T00:39:02.200Z,85.66
2017-03-28T00:40:10.774Z,86.05
2017-03-28T00:41:19.350Z,85.19
2017-03-28T00:42:27.922Z,85
2017-03-28T00:43:36.494Z,84.43
2017-03-28T00:44:45.389Z,84.81
2017-03-28T00:45:53.971Z,84.81
2017-03-28T00:47:02.853Z,83.76
2017-03-28T00:48:12.060Z,84.43
2017-03-28T00:49:20.956Z,84.81
2017-03-28T00:50:29.840Z,85
2017-03-28T00:51:38.725Z,85.28
2017-03-28T00:52:47.294Z,85.72
2017-03-28T00:53:55.871Z,85.66
2017-03-28T00:55:04.761Z,85.57
2017-03-28T00:56:13.646Z,86.52
2017-03-28T00:57:23.162Z,87.14
2017-03-28T00:58:32.045Z,87.14
2017-03-28T00:59:41.251Z,88.76
2017-03-28T01:00:49.819Z,90.56
2017-03-28T01:01:58.708Z,90.85
2017-03-28T01:03:07.284Z,91.04
2017-03-28T01:04:16.177Z,91.52
2017-03-28T01:05:24.947Z,90.56
2017-03-28T01:06:34.548Z,89.23
2017-03-28T01:07:43.759Z,88.47
2017-03-28T01:08:52.990Z,87.34
2017-03-28T01:10:01.878Z,88.09
2017-03-28T01:11:10.765Z,88.95
2017-03-28T01:12:19.964Z,89.33
2017-03-28T01:13:29.176Z,89.9
2017-03-28T01:14:38.381Z,88.28
2017-03-28T01:15:46.954Z,88.85
2017-03-28T01:16:56.162Z,89.14
2017-03-28T01:18:06.218Z,89.42
2017-03-28T01:19:15.114Z,90.37
2017-03-28T01:20:24.313Z,91.71
2017-03-28T01:21:32.881Z,92.56
2017-03-28T01:22:41.765Z,93.32
2017-03-28T01:23:50.971Z,94.18
2017-03-28T01:24:59.866Z,94.93
2017-03-28T01:26:09.077Z,96.55
2017-03-28T01:27:17.648Z,96.45
2017-03-28T01:28:26.843Z,96.12
2017-03-28T01:29:35.736Z,96.79
2017-03-28T01:30:44.620Z,97.83
2017-03-28T01:31:53.200Z,97.83
2017-03-28T01:33:01.798Z,97.07
2017-03-28T01:34:10.384Z,93.18
2017-03-28T01:35:19.282Z,93.79
2017-03-28T01:36:28.164Z,92.9
2017-03-28T01:37:37.052Z,95.27
2017-03-28T01:38:46.259Z,95.08
2017-03-28T01:39:55.467Z,96.26
2017-03-28T01:41:04.041Z,97.74
2017-03-28T01:42:12.930Z,97.74
2017-03-28T01:43:22.133Z,96.41
2017-03-28T01:44:30.705Z,96.03
2017-03-28T01:45:39.589Z,94.51
2017-03-28T01:46:48.473Z,94.13
2017-03-28T01:47:57.363Z,94.13
2017-03-28T01:49:06.566Z,94.6
2017-03-28T01:50:15.162Z,95.46
2017-03-28T01:51:23.728Z,95.75
2017-03-28T01:52:32.616Z,95.65
2017-03-28T01:53:41.500Z,95.84
2017-03-28T01:54:50.073Z,95.46
2017-03-28T01:55:59.601Z,97.07
2017-03-28T01:57:08.802Z,97.55
2017-03-28T01:58:17.687Z,97.36
2017-03-28T01:59:26.583Z,97.45
2017-03-28T02:00:35.153Z,97.55
2017-03-28T02:01:43.748Z,98.79
2017-03-28T02:02:52.653Z,99.35
2017-03-28T02:04:01.243Z,98.21
2017-03-28T02:05:10.134Z,98.79
2017-03-28T02:06:19.333Z,98.21
2017-03-28T02:07:28.211Z,97.92
2017-03-28T02:08:37.102Z,97.55
2017-03-28T02:09:45.994Z,97.64
2017-03-28T02:10:54.564Z,97.64
2017-03-28T02:12:03.131Z,97.74
2017-03-28T02:13:11.699Z,99.07
2017-03-28T02:14:20.275Z,99.16
2017-03-28T02:15:29.482Z,99.64
2017-03-28T02:16:38.365Z,99.64
2017-03-28T02:17:47.279Z,99.64
2017-03-28T02:18:56.725Z,99.44
2017-03-28T02:20:06.216Z,99.99
2017-03-28T02:21:15.562Z,99.83
2017-03-28T02:22:24.865Z,99.44
2017-03-28T02:23:33.807Z,97.83
2017-03-28T02:24:42.391Z,97.74
2017-03-28T02:25:50.961Z,97.27
2017-03-28T02:26:59.874Z,96.88
2017-03-28T02:28:08.779Z,96.5
2017-03-28T02:29:18.385Z,94.89
2017-03-28T02:30:27.250Z,94.98
2017-03-28T02:31:37.465Z,95.65
2017-03-28T02:32:47.438Z,95.55
2017-03-28T02:33:57.477Z,95.55
2017-03-28T02:35:07.558Z,94.98
2017-03-28T02:36:18.993Z,93.94
2017-03-28T02:37:29.260Z,93.56
2017-03-28T02:38:38.730Z,93.46
2017-03-28T02:39:47.302Z,92.99
2017-03-28T02:40:56.507Z,92.99
2017-03-28T02:42:05.081Z,93.08
2017-03-28T02:43:13.972Z,93.56
2017-03-28T02:44:22.861Z,93.75
2017-03-28T02:45:31.437Z,94.32
2017-03-28T02:46:40.009Z,96.41
2017-03-28T02:47:48.921Z,97.07
2017-03-28T02:48:58.132Z,96.79
2017-03-28T02:50:06.722Z,97.64
2017-03-28T02:51:15.924Z,97.55
2017-03-28T02:52:24.492Z,98.02
2017-03-28T02:53:33.173Z,98.69
2017-03-28T02:54:41.761Z,98.5
2017-03-28T02:55:50.653Z,99.16
2017-03-28T02:56:59.223Z,97.64
2017-03-28T02:58:08.111Z,97.74
2017-03-28T02:59:16.997Z,98.12
2017-03-28T03:00:25.566Z,98.59
2017-03-28T03:01:34.389Z,99.54
2017-03-28T03:02:42.960Z,99.26
2017-03-28T03:03:51.857Z,97.45
2017-03-28T03:05:00.747Z,97.92
2017-03-28T03:06:09.948Z,96.41
2017-03-28T03:07:19.467Z,95.08
2017-03-28T03:08:28.670Z,93.27
2017-03-28T03:09:37.240Z,94.03
2017-03-28T03:10:45.816Z,94.13
2017-03-28T03:11:54.702Z,94.6
2017-03-28T03:13:03.589Z,94.89
2017-03-28T03:14:12.473Z,95.55
2017-03-28T03:15:21.362Z,96.6
2017-03-28T03:16:30.244Z,96.79
2017-03-28T03:17:39.062Z,97.17
2017-03-28T03:18:47.952Z,96.98
2017-03-28T03:19:57.476Z,97.07
2017-03-28T03:21:06.687Z,98.79
2017-03-28T03:22:15.253Z,98.02
2017-03-28T03:23:24.528Z,98.4
2017-03-28T03:24:33.588Z,99.07
2017-03-28T03:25:42.534Z,98.21
2017-03-28T03:26:51.860Z,97.74
2017-03-28T03:28:00.748Z,96.5
2017-03-28T03:29:10.095Z,96.5
2017-03-28T03:30:19.404Z,96.41
2017-03-28T03:31:28.290Z,97.17
2017-03-28T03:32:37.013Z,96.79
2017-03-28T03:33:46.204Z,96.98
2017-03-28T03:34:54.795Z,96.79
2017-03-28T03:36:03.795Z,97.12
2017-03-28T03:37:12.445Z,97.83
2017-03-28T03:38:21.013Z,97.74
2017-03-28T03:39:29.742Z,97.74
2017-03-28T03:40:38.337Z,97.83
2017-03-28T03:41:46.970Z,98.5
2017-03-28T03:42:56.250Z,99.44
2017-03-28T03:44:04.881Z,99.87
2017-03-28T03:45:13.904Z,99.97
2017-03-28T03:46:22.871Z,99.99
2017-03-28T03:47:31.465Z,99.99
2017-03-28T03:48:40.861Z,99.99
2017-03-28T03:49:49.439Z,99.99
2017-03-28T03:50:58.653Z,99.99
2017-03-28T03:52:07.615Z,99.99
2017-03-28T03:53:16.875Z,99.99
2017-03-28T03:54:25.822Z,99.99
2017-03-28T03:55:34.506Z,99.99
2017-03-28T03:56:43.143Z,99.99
2017-03-28T03:57:52.151Z,99.99
2017-03-28T03:59:01.041Z,99.99
2017-03-28T04:00:09.792Z,99.99
2017-03-28T04:01:18.424Z,99.99
2017-03-28T04:02:27.097Z,99.99
2017-03-28T04:03:36.345Z,99.99
2017-03-28T04:04:45.400Z,99.99
2017-03-28T04:05:54.418Z,99.99
2017-03-28T04:07:03.396Z,99.99
2017-03-28T04:08:12.599Z,99.77
2017-03-28T04:09:21.177Z,99.77
2017-03-28T04:10:30.067Z,99.97
2017-03-28T04:11:38.951Z,99.99
2017-03-28T04:12:47.840Z,99.99
2017-03-28T04:13:56.745Z,99.99
2017-03-28T04:15:05.638Z,99.99
2017-03-28T04:16:14.207Z,99.99
2017-03-28T04:17:22.775Z,99.99
2017-03-28T04:18:31.663Z,99.99
2017-03-28T04:19:40.548Z,99.99
2017-03-28T04:20:49.453Z,99.99
2017-03-28T04:21:58.656Z,99.99
2017-03-28T04:23:07.543Z,99.99
2017-03-28T04:24:16.747Z,99.99
2017-03-28T04:25:25.635Z,99.99
2017-03-28T04:26:35.157Z,99.99
2017-03-28T04:27:44.039Z,99.99
2017-03-28T04:28:52.930Z,99.99
2017-03-28T04:30:02.776Z,99.99
2017-03-28T04:31:11.980Z,99.99
2017-03-28T04:32:20.864Z,99.99
2017-03-28T04:33:29.757Z,99.99
2017-03-28T04:34:38.668Z,99.99
2017-03-28T04:35:47.556Z,99.99
2017-03-28T04:36:56.759Z,99.99
2017-03-28T04:38:05.328Z,99.99
2017-03-28T04:39:13.905Z,99.99
2017-03-28T04:40:22.790Z,99.99
2017-03-28T04:41:31.677Z,99.99
2017-03-28T04:42:40.250Z,99.99
2017-03-28T04:43:49.455Z,99.99
2017-03-28T04:44:58.338Z,99.99
2017-03-28T04:46:07.224Z,99.99
2017-03-28T04:47:16.115Z,99.99
2017-03-28T04:48:25.001Z,99.99
2017-03-28T04:49:34.526Z,99.99
2017-03-28T04:50:43.091Z,99.99
2017-03-28T04:51:52.610Z,99.99
2017-03-28T04:53:01.498Z,99.99
2017-03-28T04:54:10.071Z,99.99
2017-03-28T04:55:19.280Z,99.99
2017-03-28T04:56:28.166Z,99.99
2017-03-28T04:57:36.756Z,99.99
2017-03-28T04:58:45.643Z,99.99
2017-03-28T04:59:54.852Z,99.99
2017-03-28T05:01:03.455Z,99.99
2017-03-28T05:02:12.089Z,99.99
2017-03-28T05:03:20.665Z,99.99
2017-03-28T05:04:29.245Z,99.99
2017-03-28T05:05:38.136Z,99.99
2017-03-28T05:06:47.018Z,99.99
2017-03-28T05:07:55.914Z,99.99
2017-03-28T05:09:04.804Z,99.99
2017-03-28T05:10:14.094Z,99.99
2017-03-28T05:11:23.318Z,99.99
2017-03-28T05:12:32.047Z,99.99
2017-03-28T05:13:40.937Z,99.99
2017-03-28T05:14:49.829Z,99.99
2017-03-28T05:15:58.744Z,99.99
2017-03-28T05:17:07.950Z,99.99
2017-03-28T05:18:16.518Z,99.99
2017-03-28T05:19:25.413Z,99.99
2017-03-28T05:20:34.936Z,99.99
2017-03-28T05:21:43.503Z,99.99
2017-03-28T05:22:52.422Z,99.99
2017-03-28T05:24:01.656Z,99.99
2017-03-28T05:25:10.230Z,99.99
2017-03-28T05:26:18.800Z,99.99
2017-03-28T05:27:27.407Z,99.99
2017-03-28T05:28:36.107Z,99.99
2017-03-28T05:29:45.016Z,99.99
2017-03-28T05:30:53.637Z,99.99
2017-03-28T05:32:02.855Z,99.99
2017-03-28T05:33:11.838Z,99.99
2017-03-28T05:34:20.419Z,99.99
2017-03-28T05:35:29.424Z,99.99
2017-03-28T05:36:38.071Z,99.99
2017-03-28T05:37:46.970Z,99.99
2017-03-28T05:38:55.549Z,99.99
2017-03-28T05:40:05.195Z,99.99
2017-03-28T05:41:14.151Z,99.99
2017-03-28T05:42:23.032Z,99.99
2017-03-28T05:43:32.559Z,99.99
2017-03-28T05:44:41.449Z,99.99
2017-03-28T05:45:50.046Z,99.99
2017-03-28T05:46:59.363Z,99.99
2017-03-28T05:48:08.915Z,99.99
2017-03-28T05:49:17.812Z,99.99
2017-03-28T05:50:26.739Z,99.99
2017-03-28T05:51:35.669Z,99.99
2017-03-28T05:52:44.555Z,99.99
2017-03-28T05:53:53.499Z,99.99
2017-03-28T05:55:02.489Z,99.99
2017-03-28T05:56:11.704Z,99.99
2017-03-28T05:57:20.589Z,99.99
2017-03-28T05:58:29.790Z,99.99
2017-03-28T05:59:38.685Z,99.99
2017-03-28T06:00:47.888Z,99.99
2017-03-28T06:01:56.772Z,99.99
2017-03-28T06:03:05.342Z,99.99
2017-03-28T06:04:14.227Z,99.99
2017-03-28T06:05:23.119Z,99.99
2017-03-28T06:06:32.322Z,99.99
2017-03-28T06:07:41.207Z,99.99
2017-03-28T06:08:50.118Z,99.99
2017-03-28T06:09:58.690Z,99.99
2017-03-28T06:11:07.895Z,99.99
2017-03-28T06:12:16.783Z,99.99
2017-03-28T06:13:25.357Z,99.99
2017-03-28T06:14:33.933Z,99.99
2017-03-28T06:15:43.134Z,99.99
2017-03-28T06:16:52.016Z,99.99
2017-03-28T06:18:00.902Z,99.99
2017-03-28T06:19:14.089Z,99.99
2017-03-28T06:20:23.296Z,99.99
2017-03-28T06:21:32.201Z,99.99
2017-03-28T06:22:41.092Z,99.99
2017-03-28T06:23:49.989Z,99.99
2017-03-28T06:24:58.894Z,99.99
2017-03-28T06:26:07.560Z,99.99
2017-03-28T06:27:16.761Z,99.99
2017-03-28T06:28:25.339Z,99.99
2017-03-28T06:29:34.223Z,99.99
2017-03-28T06:30:43.112Z,99.99
2017-03-28T06:31:51.690Z,99.99
2017-03-28T06:33:00.903Z,99.99
2017-03-28T06:34:09.786Z,99.99
2017-03-28T06:35:18.674Z,99.99
2017-03-28T06:36:27.562Z,99.99
2017-03-28T06:37:36.764Z,99.99
2017-03-28T06:38:46.283Z,99.99
2017-03-28T06:39:54.857Z,99.99
2017-03-28T06:41:04.060Z,99.99
2017-03-28T06:42:12.949Z,99.99
2017-03-28T06:43:21.837Z,99.99
2017-03-28T06:44:30.724Z,99.99
2017-03-28T06:45:39.616Z,99.99
2017-03-28T06:46:48.190Z,99.99
2017-03-28T06:47:56.759Z,99.99
2017-03-28T06:49:05.644Z,99.99
2017-03-28T06:50:14.220Z,99.99
2017-03-28T06:51:22.786Z,99.99
2017-03-28T06:52:31.670Z,99.99
2017-03-28T06:53:40.560Z,99.99
2017-03-28T06:54:50.076Z,99.99
2017-03-28T06:55:58.973Z,99.99
2017-03-28T06:57:07.583Z,99.99
2017-03-28T06:58:17.503Z,99.99
2017-03-28T06:59:26.410Z,99.99
2017-03-28T07:00:35.302Z,99.99
2017-03-28T07:01:44.574Z,99.99
2017-03-28T07:02:54.455Z,99.99
2017-03-28T07:04:04.433Z,99.99
2017-03-28T07:05:13.824Z,99.99
2017-03-28T07:06:22.810Z,98.5
2017-03-28T07:07:32.311Z,97.93
2017-03-28T07:08:41.688Z,98.08
2017-03-28T07:09:51.185Z,98.22
2017-03-28T07:11:00.368Z,98.6
2017-03-28T07:12:09.772Z,98.27
2017-03-28T07:13:19.138Z,98.36
2017-03-28T07:14:31.266Z,99.22
2017-03-28T07:15:41.483Z,99.31
2017-03-28T07:16:50.412Z,99.31
2017-03-28T07:17:59.371Z,99.02
2017-03-28T07:19:09.692Z,98.65
2017-03-28T07:20:19.503Z,98.17
2017-03-28T07:21:28.594Z,98.08
2017-03-28T07:22:37.667Z,98.46
2017-03-28T07:23:46.774Z,99.79
2017-03-28T07:24:56.078Z,98.93
2017-03-28T07:26:05.382Z,99.79
2017-03-28T07:27:14.245Z,99.99
2017-03-28T07:28:23.468Z,99.99
2017-03-28T07:29:32.446Z,99.99
2017-03-28T07:30:41.028Z,99.99
2017-03-28T07:31:50.059Z,99.99
2017-03-28T07:32:59.348Z,99.99
2017-03-28T07:34:08.093Z,99.99
2017-03-28T07:35:17.076Z,99.99
2017-03-28T07:36:25.660Z,99.99
2017-03-28T07:37:34.562Z,99.99
2017-03-28T07:38:43.839Z,99.93
2017-03-28T07:39:52.991Z,99.93
2017-03-28T07:41:01.575Z,99.99
2017-03-28T07:42:10.497Z,99.99
2017-03-28T07:43:19.604Z,99.99
2017-03-28T07:44:29.129Z,99.99
2017-03-28T07:45:38.566Z,99.99
2017-03-28T07:46:47.141Z,99.98
2017-03-28T07:47:56.347Z,99.41
2017-03-28T07:49:05.136Z,98.74
2017-03-28T07:50:13.797Z,95.89
2017-03-28T07:51:23.315Z,95.12
2017-03-28T07:52:31.888Z,95.22
2017-03-28T07:53:40.470Z,95.32
2017-03-28T07:54:49.086Z,95.22
2017-03-28T07:55:57.994Z,94.74
2017-03-28T07:57:06.599Z,94.65
2017-03-28T07:58:15.913Z,94.74
2017-03-28T07:59:25.916Z,94.03
2017-03-28T08:00:35.233Z,93.32
2017-03-28T08:01:44.210Z,93.46
2017-03-28T08:02:53.703Z,93.55
2017-03-28T08:04:02.640Z,93.55
2017-03-28T08:05:11.523Z,94.13
2017-03-28T08:06:20.516Z,94.22
2017-03-28T08:07:29.901Z,93.84
2017-03-28T08:08:39.734Z,92.98
2017-03-28T08:09:49.025Z,94.03
2017-03-28T08:10:58.477Z,95.08
2017-03-28T08:12:07.880Z,95.17
2017-03-28T08:13:17.908Z,94.37
2017-03-28T08:14:27.204Z,93.84
2017-03-28T08:15:36.870Z,94.37
2017-03-28T08:16:45.976Z,95.51
2017-03-28T08:17:55.176Z,96.08
2017-03-28T08:19:04.167Z,96.46
2017-03-28T08:20:13.838Z,95.98
2017-03-28T08:21:22.707Z,94.65
2017-03-28T08:22:32.069Z,94.17
2017-03-28T08:23:41.387Z,94.65
2017-03-28T08:24:50.677Z,94.93
2017-03-28T08:25:59.494Z,95.22
2017-03-28T08:27:08.385Z,94.93
2017-03-28T08:28:17.591Z,93.79
2017-03-28T08:29:26.485Z,93.41
2017-03-28T08:30:35.068Z,93.6
2017-03-28T08:31:43.964Z,93.32
2017-03-28T08:32:53.173Z,92.88
2017-03-28T08:34:01.777Z,92.88
2017-03-28T08:35:10.671Z,92.79
2017-03-28T08:36:19.562Z,93.46
2017-03-28T08:37:29.089Z,94.12
2017-03-28T08:38:38.704Z,93.74
2017-03-28T08:39:48.300Z,93.74
2017-03-28T08:40:57.834Z,94.12
2017-03-28T08:42:06.407Z,93.36
2017-03-28T08:43:15.298Z,92.12
2017-03-28T08:44:24.131Z,92.5
2017-03-28T08:45:33.974Z,92.5
2017-03-28T08:46:42.867Z,91.64
2017-03-28T08:47:52.149Z,90.98
2017-03-28T08:49:01.809Z,90.45
2017-03-28T08:50:11.022Z,91.02
2017-03-28T08:51:20.302Z,90.55
2017-03-28T08:52:29.535Z,90.45
2017-03-28T08:53:39.220Z,90.17
2017-03-28T08:54:51.157Z,89.59
2017-03-28T08:56:00.207Z,90.26
2017-03-28T08:57:09.112Z,90.07
2017-03-28T08:58:18.473Z,89.31
2017-03-28T08:59:27.615Z,89.21
2017-03-28T09:00:37.072Z,90.36
2017-03-28T09:01:46.810Z,89.88
2017-03-28T09:02:56.092Z,89.21
2017-03-28T09:04:06.378Z,88.78
2017-03-28T09:05:15.510Z,88.16
2017-03-28T09:06:24.446Z,88.2
2017-03-28T09:07:33.340Z,87.92
2017-03-28T09:08:42.559Z,86.96
2017-03-28T09:09:51.822Z,86.87
2017-03-28T09:11:00.935Z,86.58
2017-03-28T09:12:09.827Z,86.96
2017-03-28T09:13:18.739Z,86.39
2017-03-28T09:14:27.638Z,86.1
2017-03-28T09:15:36.464Z,86.49
2017-03-28T09:16:46.590Z,86.01
2017-03-28T09:17:55.545Z,86.1
2017-03-28T09:19:04.809Z,85.34
2017-03-28T09:20:14.068Z,85.25
2017-03-28T09:21:23.662Z,84.77
2017-03-28T09:22:33.735Z,83.86
2017-03-28T09:23:42.750Z,84.23
2017-03-28T09:24:51.464Z,84.81
2017-03-28T09:26:01.040Z,84.43
2017-03-28T09:27:11.040Z,84.43
2017-03-28T09:28:20.301Z,84.91
2017-03-28T09:29:29.504Z,84.91
2017-03-28T09:30:38.406Z,84.72
2017-03-28T09:31:47.853Z,83.95
2017-03-28T09:32:57.930Z,83.95
2017-03-28T09:34:07.947Z,83.67
2017-03-28T09:35:18.423Z,83.67
2017-03-28T09:36:27.930Z,83.86
2017-03-28T09:37:36.925Z,84.38
2017-03-28T09:38:45.829Z,83.99
2017-03-28T09:39:55.140Z,84.09
2017-03-28T09:41:05.151Z,84.19
2017-03-28T09:42:13.734Z,83.61
2017-03-28T09:43:22.304Z,83.42
2017-03-28T09:44:31.230Z,82.37
2017-03-28T09:45:40.128Z,82.94
2017-03-28T09:46:49.022Z,82.37
2017-03-28T09:47:57.593Z,82.46
2017-03-28T09:49:06.168Z,83.17
2017-03-28T09:50:14.745Z,83.94
2017-03-28T09:51:23.319Z,83.27
2017-03-28T09:52:31.903Z,82.6
2017-03-28T09:53:41.220Z,81.93
2017-03-28T09:54:50.945Z,80.88
2017-03-28T09:56:00.175Z,81.74
2017-03-28T09:57:09.196Z,81.65
2017-03-28T09:58:18.086Z,82.51
2017-03-28T09:59:27.317Z,81.84
2017-03-28T10:00:36.543Z,81.74
2017-03-28T10:01:45.444Z,81.55
2017-03-28T10:02:54.333Z,80.3
2017-03-28T10:04:02.912Z,80.59
2017-03-28T10:05:11.500Z,80.35
2017-03-28T10:06:20.071Z,80.25
2017-03-28T10:07:28.645Z,80.35
2017-03-28T10:08:37.973Z,80.16
2017-03-28T10:09:48.217Z,80.06
2017-03-28T10:10:56.823Z,79.77
2017-03-28T10:12:06.351Z,79.2
2017-03-28T10:13:15.295Z,78.81
2017-03-28T10:14:23.866Z,78.63
2017-03-28T10:15:32.443Z,77.57
2017-03-28T10:16:41.333Z,77.95
2017-03-28T10:17:49.909Z,77.61
2017-03-28T10:18:59.112Z,77.13
2017-03-28T10:20:08.567Z,77.8
2017-03-28T10:21:17.461Z,78.95
2017-03-28T10:22:27.130Z,77.61
2017-03-28T10:23:36.389Z,76.27
2017-03-28T10:24:45.280Z,75.6
2017-03-28T10:25:54.488Z,75.22
2017-03-28T10:27:03.702Z,75.22
2017-03-28T10:28:12.605Z,75.7
2017-03-28T10:29:21.178Z,75.7
2017-03-28T10:30:29.748Z,75.16
2017-03-28T10:31:39.280Z,75.07
2017-03-28T10:32:48.179Z,74.87
2017-03-28T10:33:56.754Z,74.87
2017-03-28T10:35:06.150Z,75.07
2017-03-28T10:36:14.764Z,74.68
2017-03-28T10:37:23.652Z,75.35
2017-03-28T10:38:32.545Z,74.97
2017-03-28T10:39:41.443Z,74.49
2017-03-28T10:40:50.024Z,74.11
2017-03-28T10:41:58.802Z,73.72
2017-03-28T10:43:07.385Z,74.2
2017-03-28T10:44:16.598Z,73.54
2017-03-28T10:45:25.178Z,72.99
2017-03-28T10:46:34.124Z,72.71
2017-03-28T10:47:43.338Z,72.8
2017-03-28T10:48:52.244Z,73.86
2017-03-28T10:50:01.461Z,73.95
2017-03-28T10:51:10.054Z,72.8
2017-03-28T10:52:18.704Z,71.84
2017-03-28T10:53:28.092Z,72.99
2017-03-28T10:54:40.247Z,73.86
2017-03-28T10:55:51.881Z,72.03
2017-03-28T10:57:00.778Z,71.56
2017-03-28T10:58:09.991Z,71.94
2017-03-28T10:59:18.572Z,71.66
2017-03-28T11:00:27.796Z,71.56
2017-03-28T11:01:36.689Z,72.17
2017-03-28T11:02:45.583Z,71.4
2017-03-28T11:03:55.128Z,71.5
2017-03-28T11:05:04.401Z,71.98
2017-03-28T11:06:12.975Z,71.98
2017-03-28T11:07:22.185Z,71.5
2017-03-28T11:08:31.081Z,70.35
2017-03-28T11:09:39.973Z,69.87
2017-03-28T11:10:49.498Z,68.81
2017-03-28T11:11:58.074Z,68.62
2017-03-28T11:13:07.286Z,68.91
2017-03-28T11:14:15.916Z,70.25
2017-03-28T11:15:24.812Z,68.81
2017-03-28T11:16:34.056Z,67.66
2017-03-28T11:17:42.639Z,67.66
2017-03-28T11:18:51.540Z,67.6
2017-03-28T11:20:00.482Z,67.69
2017-03-28T11:21:09.111Z,68.27
2017-03-28T11:22:18.325Z,69.33
2017-03-28T11:23:27.438Z,69.04
2017-03-28T11:24:36.330Z,67.12
2017-03-28T11:25:45.455Z,66.26
2017-03-28T11:26:54.683Z,65.78
2017-03-28T11:28:03.940Z,65.72
2017-03-28T11:29:12.953Z,64.56
2017-03-28T11:30:21.563Z,63.7
2017-03-28T11:31:31.494Z,63.99
2017-03-28T11:32:40.357Z,64.76
2017-03-28T11:33:49.417Z,63.51
2017-03-28T11:34:58.350Z,63.6
2017-03-28T11:36:06.963Z,63.99
2017-03-28T11:37:16.037Z,65.05
2017-03-28T11:38:25.558Z,65.72
2017-03-28T11:39:34.469Z,64.37
2017-03-28T11:40:43.453Z,64.76
2017-03-28T11:41:52.423Z,65.05
2017-03-28T11:43:01.342Z,64.09
2017-03-28T11:44:10.298Z,62.48
2017-03-28T11:45:19.856Z,62.39
2017-03-28T11:46:29.160Z,63.45
2017-03-28T11:47:38.700Z,63.16
2017-03-28T11:48:47.319Z,62.96
2017-03-28T11:49:56.246Z,63.83
2017-03-28T11:51:05.150Z,62.01
2017-03-28T11:52:14.438Z,62.19
2017-03-28T11:53:23.329Z,62.39
2017-03-28T11:54:32.233Z,61.72
2017-03-28T11:55:41.438Z,61.05
2017-03-28T11:56:50.334Z,60.75
2017-03-28T11:57:59.798Z,59.7
2017-03-28T11:59:08.695Z,59.32
2017-03-28T12:00:18.171Z,59.8
2017-03-28T12:01:26.744Z,60.6
2017-03-28T12:02:35.322Z,61.46
2017-03-28T12:03:43.904Z,60.4
2017-03-28T12:04:53.117Z,59.73
2017-03-28T12:06:02.469Z,59.92
2017-03-28T12:07:11.734Z,59.73
2017-03-28T12:08:20.947Z,60.5
2017-03-28T12:09:29.523Z,60.21
2017-03-28T12:10:38.100Z,59.64
2017-03-28T12:11:47.310Z,59.92
2017-03-28T12:12:56.526Z,58.77
2017-03-28T12:14:05.104Z,58.67
2017-03-28T12:15:13.681Z,58.96
2017-03-28T12:16:22.581Z,59.64
2017-03-28T12:17:31.485Z,59.64
2017-03-28T12:18:40.375Z,59.25
2017-03-28T12:19:48.948Z,60.02
2017-03-28T12:20:57.841Z,58.87
2017-03-28T12:22:06.861Z,59.06
2017-03-28T12:23:16.403Z,59.73
2017-03-28T12:24:26.631Z,60.6
2017-03-28T12:25:35.824Z,60.21
2017-03-28T12:26:44.718Z,61.08
2017-03-28T12:27:53.612Z,60.14
2017-03-28T12:29:02.199Z,59.76
2017-03-28T12:30:10.786Z,60.34
2017-03-28T12:31:19.364Z,60.43
2017-03-28T12:32:27.945Z,60.14
2017-03-28T12:33:37.180Z,59.86
2017-03-28T12:34:45.764Z,58.99
2017-03-28T12:35:54.926Z,58.99
2017-03-28T12:37:03.821Z,59.95
2017-03-28T12:38:13.040Z,59.66
2017-03-28T12:39:22.268Z,59.86
2017-03-28T12:40:31.168Z,60.43
2017-03-28T12:41:39.747Z,62.07
2017-03-28T12:42:48.647Z,58.89
2017-03-28T12:43:57.857Z,58.22
2017-03-28T12:45:07.066Z,57.45
2017-03-28T12:46:15.684Z,59.09
2017-03-28T12:47:24.576Z,59.66
2017-03-28T12:48:33.148Z,58.42
2017-03-28T12:49:42.049Z,59.19
2017-03-28T12:50:50.631Z,58.51
2017-03-28T12:51:59.843Z,57.55
2017-03-28T12:53:09.092Z,58.8
2017-03-28T12:54:17.669Z,58.89
2017-03-28T12:55:26.359Z,58.7
2017-03-28T12:56:35.264Z,58.06
2017-03-28T12:57:43.980Z,59.41
2017-03-28T12:58:59.006Z,59.5
2017-03-28T13:00:10.781Z,60.08
2017-03-28T13:01:21.175Z,59.79
2017-03-28T13:02:31.167Z,59.02
2017-03-28T13:03:42.439Z,59.79
2017-03-28T13:04:52.341Z,59.99
2017-03-28T13:06:03.110Z,59.31
2017-03-28T13:07:12.772Z,59.79
2017-03-28T13:08:22.352Z,59.31
2017-03-28T13:09:34.375Z,58.25
2017-03-28T13:10:45.653Z,58.83
2017-03-28T13:11:56.998Z,58.25
2017-03-28T13:13:08.141Z,58.83
2017-03-28T13:14:19.330Z,58.45
2017-03-28T13:15:28.230Z,58.54
2017-03-28T13:16:37.280Z,58.35
2017-03-28T13:17:46.199Z,59.31
2017-03-28T13:18:57.634Z,59.22
2017-03-28T13:20:08.766Z,57.87
2017-03-28T13:21:18.468Z,59.02
2017-03-28T13:22:27.735Z,59.31
2017-03-28T13:23:36.626Z,58.25
2017-03-28T13:24:45.594Z,57.87
2017-03-28T13:25:54.487Z,58.45
2017-03-28T13:27:03.386Z,59.12
2017-03-28T13:28:12.310Z,59.02
2017-03-28T13:29:21.524Z,61.43
2017-03-28T13:30:30.419Z,60.97
2017-03-28T13:31:39.325Z,60.46
2017-03-28T13:32:47.913Z,59.99
2017-03-28T13:33:57.125Z,58.47
2017-03-28T13:35:05.716Z,57.8
2017-03-28T13:36:14.621Z,58.25
2017-03-28T13:37:24.151Z,60.37
2017-03-28T13:38:32.726Z,60.17
2017-03-28T13:39:41.937Z,59.92
2017-03-28T13:40:50.837Z,59.02
2017-03-28T13:42:00.049Z,61.43
2017-03-28T13:43:09.264Z,59.44
2017-03-28T13:44:18.160Z,58.54
2017-03-28T13:45:27.059Z,60.46
2017-03-28T13:46:35.958Z,59.34
2017-03-28T13:47:45.168Z,58.95
2017-03-28T13:48:53.745Z,58.37
2017-03-28T13:50:03.270Z,59.15
2017-03-28T13:51:12.167Z,58.28
2017-03-28T13:52:20.743Z,59.24
2017-03-28T13:53:29.560Z,58.86
2017-03-28T13:54:39.489Z,58.45
2017-03-28T13:55:48.384Z,58.09
2017-03-28T13:56:57.413Z,59.53
2017-03-28T13:58:06.862Z,61.36
2017-03-28T13:59:16.077Z,59.82
2017-03-28T14:00:26.038Z,59.63
2017-03-28T14:01:35.079Z,59.34
2017-03-28T14:02:44.180Z,59.82
2017-03-28T14:03:53.075Z,59.15
2017-03-28T14:05:01.659Z,58.76
2017-03-28T14:06:10.560Z,58.37
2017-03-28T14:07:19.778Z,57.6
2017-03-28T14:08:28.669Z,58.18
2017-03-28T14:09:37.889Z,59.05
2017-03-28T14:10:47.132Z,58.67
2017-03-28T14:11:55.722Z,59.15
2017-03-28T14:13:04.641Z,59.72
2017-03-28T14:14:13.853Z,60.49
2017-03-28T14:15:22.755Z,59.72
2017-03-28T14:16:31.474Z,59.92
2017-03-28T14:17:40.369Z,59.24
2017-03-28T14:18:49.603Z,59.05
2017-03-28T14:19:58.494Z,58.28
2017-03-28T14:21:07.073Z,58.67
2017-03-28T14:22:15.979Z,58.47
2017-03-28T14:23:24.877Z,58.57
2017-03-28T14:24:33.452Z,58.47
2017-03-28T14:25:42.353Z,58.67
2017-03-28T14:26:51.240Z,58.18
2017-03-28T14:28:00.477Z,57.03
2017-03-28T14:29:09.059Z,59.15
2017-03-28T14:30:17.688Z,59.15
2017-03-28T14:31:27.243Z,58.86
2017-03-28T14:32:36.722Z,59.05
2017-03-28T14:33:45.623Z,59.92
2017-03-28T14:34:54.206Z,59.82
2017-03-28T14:36:03.432Z,59.05
2017-03-28T14:37:12.459Z,58.95
2017-03-28T14:38:21.927Z,58.47
2017-03-28T14:39:31.259Z,58.57
2017-03-28T14:40:40.163Z,58.37
2017-03-28T14:41:49.059Z,58.76
2017-03-28T14:42:58.611Z,58.95
2017-03-28T14:44:08.174Z,58.67
2017-03-28T14:45:16.761Z,58.37
2017-03-28T14:46:25.376Z,59.05
2017-03-28T14:47:33.950Z,60.49
2017-03-28T14:48:43.203Z,61.26
2017-03-28T14:49:51.787Z,61.36
2017-03-28T14:51:00.679Z,59.05
2017-03-28T14:52:09.897Z,58.76